Time;durP1;ratioP1;P1;durP2;ratioP2;P2;SDS_P1;SDS_P2;PMS_P1;PMS_P2;Temp;Humidity;BMP_temperature;BMP_pressure;BME280_temperature;BME280_humidity;BME280_pressure;Samples;Min_cycle;Max_cycle;Signal;HPM_P1;HPM_P2
2021/12/20 00:00:47;;;;;;;27.25;5.75;;;;;;;;;;5062423;28;20029;-78
2021/12/20 00:03:14;;;;;;;26.40;5.35;;;;;;;;;;5063763;28;20397;-78
2021/12/20 00:05:40;;;;;;;25.95;5.63;;;;;;;;;;5062479;28;20028;-78
2021/12/20 00:08:06;;;;;;;27.10;5.18;;;;;;;;;;5060786;28;20031;-79
2021/12/20 00:10:32;;;;;;;34.22;7.57;;;;;;;;;;5061563;28;20037;-79
2021/12/20 00:12:58;;;;;;;26.15;5.82;;;;;;;;;;5063283;28;20021;-78
2021/12/20 00:15:24;;;;;;;32.95;6.97;;;;;;;;;;5060641;28;20099;-80
2021/12/20 00:17:50;;;;;;;34.92;6.82;;;;;;;;;;5062725;28;20021;-79
2021/12/20 00:20:17;;;;;;;29.80;6.80;;;;;;;;;;5062838;28;20485;-80
2021/12/20 00:22:43;;;;;;;32.88;5.85;;;;;;;;;;5062974;28;20080;-80
2021/12/20 00:25:09;;;;;;;26.83;5.60;;;;;;;;;;5067610;28;20482;-79
2021/12/20 00:27:36;;;;;;;23.05;5.45;;;;;;;;;;5063754;28;20035;-80
2021/12/20 00:30:02;;;;;;;26.80;5.53;;;;;;;;;;5063421;28;20397;-80
2021/12/20 00:32:28;;;;;;;30.80;5.55;;;;;;;;;;5062713;28;20091;-79
2021/12/20 00:34:54;;;;;;;31.80;5.97;;;;;;;;;;5060597;28;20466;-79
2021/12/20 00:40:21;;;;;;;24.00;5.57;;;;;;;;;;5063330;28;20056;-79
2021/12/20 00:43:05;;;;;;;28.55;6.07;;;;;;;;;;5066682;28;20040;-77
2021/12/20 00:45:33;;;;;;;18.48;5.30;;;;;;;;;;5068909;28;20071;-79
2021/12/20 00:47:59;;;;;;;31.23;5.82;;;;;;;;;;5060161;28;20060;-79
2021/12/20 00:50:26;;;;;;;28.00;6.03;;;;;;;;;;5061996;28;20021;-79
2021/12/20 00:52:52;;;;;;;26.17;5.65;;;;;;;;;;5076395;28;20112;-78
2021/12/20 00:55:18;;;;;;;26.27;5.50;;;;;;;;;;5075849;28;20024;-79
2021/12/20 00:57:45;;;;;;;22.52;4.95;;;;;;;;;;5075055;28;20044;-79
2021/12/20 01:00:12;;;;;;;26.13;5.40;;;;;;;;;;5072670;28;20036;-79
2021/12/20 01:02:38;;;;;;;29.15;5.85;;;;;;;;;;5077940;28;20040;-79
2021/12/20 01:05:04;;;;;;;26.73;4.97;;;;;;;;;;5068824;28;20029;-78
2021/12/20 01:07:31;;;;;;;23.15;5.30;;;;;;;;;;5064926;28;20035;-79
2021/12/20 01:09:59;;;;;;;22.58;5.38;;;;;;;;;;5073340;28;20055;-79
2021/12/20 01:12:31;;;;;;;18.35;4.97;;;;;;;;;;5063411;28;20036;-79
2021/12/20 01:15:01;;;;;;;36.50;6.07;;;;;;;;;;5066151;28;20071;-79
2021/12/20 01:17:27;;;;;;;22.30;5.13;;;;;;;;;;5061249;28;20051;-79
2021/12/20 01:19:53;;;;;;;18.58;5.18;;;;;;;;;;5057096;28;20080;-78
2021/12/20 01:22:19;;;;;;;23.15;5.93;;;;;;;;;;5057020;28;20035;-79
2021/12/20 01:24:45;;;;;;;21.10;5.30;;;;;;;;;;5057132;28;20413;-79
2021/12/20 01:27:11;;;;;;;24.55;5.70;;;;;;;;;;5056701;28;20043;-79
2021/12/20 01:29:37;;;;;;;21.33;5.00;;;;;;;;;;5058365;28;20044;-78
2021/12/20 01:32:03;;;;;;;19.67;4.65;;;;;;;;;;5057465;28;20489;-79
2021/12/20 01:34:29;;;;;;;23.38;5.22;;;;;;;;;;5057219;28;20025;-78
2021/12/20 01:36:56;;;;;;;21.70;4.95;;;;;;;;;;5056085;28;20051;-79
2021/12/20 01:39:22;;;;;;;28.90;6.40;;;;;;;;;;5055961;28;20087;-78
2021/12/20 01:41:51;;;;;;;17.80;5.13;;;;;;;;;;5056365;28;20025;-78
2021/12/20 01:44:17;;;;;;;29.88;5.72;;;;;;;;;;5056593;28;20036;-79
2021/12/20 01:46:43;;;;;;;22.83;5.28;;;;;;;;;;5057773;28;20036;-79
2021/12/20 01:49:13;;;;;;;24.40;5.03;;;;;;;;;;5059171;28;20029;-79
2021/12/20 01:52:01;;;;;;;28.33;5.25;;;;;;;;;;5072176;28;20021;-79
2021/12/20 01:54:28;;;;;;;19.67;5.05;;;;;;;;;;5070378;28;20039;-79
2021/12/20 01:56:54;;;;;;;20.55;5.38;;;;;;;;;;5070004;28;20017;-79
2021/12/20 01:59:20;;;;;;;22.50;4.90;;;;;;;;;;5056036;28;20017;-79
2021/12/20 02:01:46;;;;;;;33.20;5.25;;;;;;;;;;5056294;28;20032;-78
2021/12/20 02:04:13;;;;;;;27.42;5.80;;;;;;;;;;5056983;28;20021;-80
2021/12/20 02:06:41;;;;;;;26.83;5.22;;;;;;;;;;5060749;28;20056;-80
2021/12/20 02:09:08;;;;;;;21.17;4.60;;;;;;;;;;5071661;28;20090;-78
2021/12/20 02:11:35;;;;;;;29.40;5.75;;;;;;;;;;5071127;28;20063;-79
2021/12/20 02:14:01;;;;;;;30.77;5.30;;;;;;;;;;5061225;28;20052;-78
2021/12/20 02:16:27;;;;;;;21.95;4.85;;;;;;;;;;5056205;28;20173;-80
2021/12/20 02:18:53;;;;;;;35.53;5.55;;;;;;;;;;5057451;28;20045;-79
2021/12/20 02:21:19;;;;;;;28.13;5.53;;;;;;;;;;5058608;28;20111;-79
2021/12/20 02:23:45;;;;;;;29.27;5.43;;;;;;;;;;5058771;28;20057;-79
2021/12/20 02:26:14;;;;;;;22.05;5.32;;;;;;;;;;5058808;28;20052;-80
2021/12/20 02:28:44;;;;;;;30.10;5.85;;;;;;;;;;5062022;28;20485;-79
2021/12/20 02:39:14;;;;;;;23.58;4.78;;;;;;;;;;5059058;28;20401;-80
2021/12/20 02:41:41;;;;;;;27.80;5.38;;;;;;;;;;5058848;28;20029;-81
2021/12/20 02:44:15;;;;;;;24.08;5.00;;;;;;;;;;5059552;28;20032;-81
2021/12/20 02:49:09;;;;;;;31.58;5.72;;;;;;;;;;5061906;28;20036;-80
2021/12/20 02:51:36;;;;;;;24.05;5.70;;;;;;;;;;5058223;28;20032;-80
2021/12/20 02:54:03;;;;;;;24.88;5.05;;;;;;;;;;5059848;28;20531;-80
2021/12/20 02:56:29;;;;;;;23.15;4.88;;;;;;;;;;5057779;28;20033;-82
2021/12/20 02:58:55;;;;;;;21.73;4.45;;;;;;;;;;5060600;28;20028;-80
2021/12/20 03:01:21;;;;;;;26.58;5.18;;;;;;;;;;5062110;28;20026;-80
2021/12/20 03:03:48;;;;;;;18.10;4.85;;;;;;;;;;5058681;28;20048;-80
2021/12/20 03:06:20;;;;;;;25.02;4.22;;;;;;;;;;5058115;28;20112;-80
2021/12/20 03:08:50;;;;;;;24.35;4.00;;;;;;;;;;5057601;28;20025;-79
2021/12/20 03:11:17;;;;;;;17.65;4.20;;;;;;;;;;5057631;28;20021;-75
2021/12/20 03:13:46;;;;;;;24.50;4.75;;;;;;;;;;5063573;28;20084;-78
2021/12/20 03:16:12;;;;;;;24.83;4.68;;;;;;;;;;5070311;28;20045;-77
2021/12/20 03:18:38;;;;;;;19.50;4.60;;;;;;;;;;5055669;28;20036;-77
2021/12/20 03:21:04;;;;;;;16.20;4.00;;;;;;;;;;5054907;28;20060;-78
2021/12/20 03:23:30;;;;;;;20.73;4.65;;;;;;;;;;5052776;28;20025;-78
2021/12/20 03:25:56;;;;;;;18.60;4.57;;;;;;;;;;5054590;28;20024;-78
2021/12/20 03:28:22;;;;;;;18.73;3.92;;;;;;;;;;5063008;28;20021;-78
2021/12/20 03:30:48;;;;;;;23.95;4.60;;;;;;;;;;5067221;28;20417;-78
2021/12/20 03:33:14;;;;;;;17.35;4.50;;;;;;;;;;5058917;28;20013;-78
2021/12/20 03:35:40;;;;;;;21.60;4.35;;;;;;;;;;5055795;28;20021;-79
2021/12/20 03:38:06;;;;;;;29.77;6.63;;;;;;;;;;5067513;28;20104;-79
2021/12/20 03:40:33;;;;;;;23.08;4.47;;;;;;;;;;5060690;28;20021;-79
2021/12/20 03:43:00;;;;;;;29.15;4.55;;;;;;;;;;5061284;28;20044;-80
2021/12/20 03:45:26;;;;;;;24.60;4.75;;;;;;;;;;5057954;28;20051;-78
2021/12/20 03:47:52;;;;;;;19.13;4.50;;;;;;;;;;5056687;28;20029;-78
2021/12/20 03:50:18;;;;;;;19.80;3.90;;;;;;;;;;5057052;28;20061;-78
2021/12/20 03:52:44;;;;;;;20.23;4.65;;;;;;;;;;5056024;28;20029;-77
2021/12/20 03:55:11;;;;;;;23.63;4.97;;;;;;;;;;5060119;28;20056;-78
2021/12/20 03:57:38;;;;;;;25.33;4.68;;;;;;;;;;5058255;28;20506;-78
2021/12/20 04:00:04;;;;;;;22.40;5.05;;;;;;;;;;5054342;28;20467;-79
2021/12/20 04:02:38;;;;;;;26.10;4.85;;;;;;;;;;5056905;28;20070;-79
2021/12/20 04:05:04;;;;;;;23.95;3.95;;;;;;;;;;5053918;28;20017;-79
2021/12/20 04:07:30;;;;;;;21.73;4.43;;;;;;;;;;5052911;28;20088;-79
2021/12/20 04:09:56;;;;;;;22.95;4.60;;;;;;;;;;5053990;28;20089;-78
2021/12/20 04:12:22;;;;;;;21.88;4.50;;;;;;;;;;5066329;28;20084;-81
2021/12/20 04:14:48;;;;;;;25.10;5.15;;;;;;;;;;5066438;28;20056;-80
2021/12/20 04:17:14;;;;;;;23.55;4.47;;;;;;;;;;5057533;28;20021;-79
2021/12/20 04:19:40;;;;;;;23.48;5.90;;;;;;;;;;5060128;28;20031;-80
2021/12/20 04:22:06;;;;;;;25.90;7.07;;;;;;;;;;5065427;28;20033;-79
2021/12/20 04:24:32;;;;;;;25.63;5.03;;;;;;;;;;5068427;28;20025;-79
2021/12/20 04:26:58;;;;;;;16.05;4.57;;;;;;;;;;5074225;28;20093;-80
2021/12/20 04:29:24;;;;;;;18.70;4.82;;;;;;;;;;5074662;28;20025;-79
2021/12/20 04:31:50;;;;;;;22.00;5.25;;;;;;;;;;5071647;28;20027;-79
2021/12/20 04:34:16;;;;;;;23.85;4.90;;;;;;;;;;5074954;28;20045;-79
2021/12/20 04:36:43;;;;;;;27.05;5.07;;;;;;;;;;5075578;28;20032;-80
2021/12/20 04:39:13;;;;;;;27.92;5.10;;;;;;;;;;5071943;28;20103;-78
2021/12/20 04:41:40;;;;;;;31.10;5.30;;;;;;;;;;5074689;28;20025;-78
2021/12/20 04:44:06;;;;;;;18.05;4.72;;;;;;;;;;5062422;28;20025;-79
2021/12/20 04:46:32;;;;;;;18.77;3.92;;;;;;;;;;5059369;28;20025;-79
2021/12/20 04:48:58;;;;;;;22.17;4.38;;;;;;;;;;5060600;28;20079;-77
2021/12/20 04:51:24;;;;;;;27.10;6.18;;;;;;;;;;5056411;28;20024;-79
2021/12/20 04:53:49;;;;;;;16.95;4.10;;;;;;;;;;5064343;28;20051;-79
2021/12/20 04:56:15;;;;;;;20.75;4.32;;;;;;;;;;5073855;28;20025;-79
2021/12/20 04:58:42;;;;;;;26.88;5.45;;;;;;;;;;5074460;28;20155;-81
2021/12/20 05:01:07;;;;;;;31.08;11.80;;;;;;;;;;5072342;28;20025;-79
2021/12/20 05:03:33;;;;;;;40.65;14.45;;;;;;;;;;5073270;28;20033;-79
2021/12/20 05:05:59;;;;;;;28.88;6.38;;;;;;;;;;5074767;28;20067;-80
2021/12/20 05:08:34;;;;;;;25.15;4.80;;;;;;;;;;5069230;28;20040;-79
2021/12/20 05:11:01;;;;;;;21.05;5.15;;;;;;;;;;5068272;28;20036;-79
2021/12/20 05:13:27;;;;;;;20.23;4.72;;;;;;;;;;5066812;28;20025;-80
2021/12/20 05:15:53;;;;;;;29.20;5.78;;;;;;;;;;5066542;28;20025;-79
2021/12/20 05:18:19;;;;;;;15.02;3.47;;;;;;;;;;5060653;28;20056;-80
2021/12/20 05:20:45;;;;;;;27.25;5.00;;;;;;;;;;5062937;28;20505;-80
2021/12/20 05:23:11;;;;;;;22.30;4.75;;;;;;;;;;5068808;28;20238;-79
2021/12/20 05:25:37;;;;;;;26.88;3.92;;;;;;;;;;5073584;28;20039;-79
2021/12/20 05:28:04;;;;;;;23.55;4.20;;;;;;;;;;5072434;28;20104;-79
2021/12/20 05:30:30;;;;;;;17.38;4.38;;;;;;;;;;5072457;28;20036;-79
2021/12/20 05:32:56;;;;;;;22.63;4.88;;;;;;;;;;5071334;28;20024;-80
2021/12/20 05:35:22;;;;;;;23.05;5.00;;;;;;;;;;5071797;28;20025;-80
2021/12/20 05:37:48;;;;;;;22.27;5.10;;;;;;;;;;5075193;28;20052;-80
2021/12/20 05:40:15;;;;;;;19.63;4.70;;;;;;;;;;5073701;28;20033;-78
2021/12/20 05:42:41;;;;;;;20.95;4.60;;;;;;;;;;5068492;28;20033;-77
2021/12/20 05:45:08;;;;;;;17.85;4.43;;;;;;;;;;5068169;28;20029;-78
2021/12/20 05:47:34;;;;;;;27.23;4.45;;;;;;;;;;5069049;28;20478;-78
2021/12/20 05:50:00;;;;;;;28.13;6.70;;;;;;;;;;5072241;28;20028;-78
2021/12/20 05:52:26;;;;;;;23.63;5.85;;;;;;;;;;5073140;28;20040;-77
2021/12/20 05:54:52;;;;;;;22.42;4.90;;;;;;;;;;5071583;28;20051;-79
2021/12/20 05:57:18;;;;;;;18.90;4.70;;;;;;;;;;5071918;28;20081;-78
2021/12/20 05:59:44;;;;;;;21.45;4.25;;;;;;;;;;5071794;28;20016;-79
2021/12/20 06:02:10;;;;;;;22.70;4.68;;;;;;;;;;5071637;28;20505;-80
2021/12/20 06:04:36;;;;;;;20.42;4.43;;;;;;;;;;5067177;28;20029;-78
2021/12/20 06:07:02;;;;;;;24.02;5.15;;;;;;;;;;5066079;28;20025;-79
2021/12/20 06:09:28;;;;;;;19.48;3.90;;;;;;;;;;5065170;28;20063;-78
2021/12/20 06:11:59;;;;;;;25.15;4.72;;;;;;;;;;5065147;28;20082;-78
2021/12/20 06:14:25;;;;;;;97.75;40.45;;;;;;;;;;5065286;28;20020;-79
2021/12/20 06:16:51;;;;;;;25.50;6.88;;;;;;;;;;5060694;28;20032;-80
2021/12/20 06:19:17;;;;;;;15.73;4.10;;;;;;;;;;5066008;28;20031;-79
2021/12/20 06:21:43;;;;;;;18.13;4.95;;;;;;;;;;5069487;28;20077;-81
2021/12/20 06:24:09;;;;;;;19.20;4.63;;;;;;;;;;5062979;28;20025;-82
2021/12/20 06:26:35;;;;;;;21.75;4.55;;;;;;;;;;5061322;28;20029;-79
2021/12/20 06:29:01;;;;;;;22.13;4.82;;;;;;;;;;5067654;28;20029;-79
2021/12/20 06:31:27;;;;;;;20.08;4.72;;;;;;;;;;5069987;28;20064;-79
2021/12/20 06:33:53;;;;;;;15.30;4.85;;;;;;;;;;5063487;28;20021;-82
2021/12/20 06:36:21;;;;;;;26.23;5.20;;;;;;;;;;5062743;28;20025;-81
2021/12/20 06:38:47;;;;;;;18.90;4.72;;;;;;;;;;5066018;28;20085;-81
2021/12/20 06:41:13;;;;;;;20.42;4.50;;;;;;;;;;5062273;28;20025;-79
2021/12/20 06:43:39;;;;;;;25.63;6.88;;;;;;;;;;5059806;28;20078;-79
2021/12/20 06:46:05;;;;;;;24.42;5.60;;;;;;;;;;5058535;28;20029;-80
2021/12/20 06:48:31;;;;;;;22.33;4.78;;;;;;;;;;5058060;28;20025;-80
2021/12/20 06:50:57;;;;;;;23.38;4.72;;;;;;;;;;5063719;28;20036;-79
2021/12/20 06:53:23;;;;;;;13.80;3.75;;;;;;;;;;5073109;28;20017;-80
2021/12/20 06:55:49;;;;;;;17.33;4.07;;;;;;;;;;5063844;28;20390;-81
2021/12/20 06:58:15;;;;;;;21.40;4.38;;;;;;;;;;5062963;28;20025;-80
2021/12/20 07:00:41;;;;;;;25.33;6.75;;;;;;;;;;5073173;28;20025;-78
2021/12/20 07:03:07;;;;;;;35.35;13.32;;;;;;;;;;5074876;28;20029;-77
2021/12/20 07:05:33;;;;;;;17.10;4.68;;;;;;;;;;5075610;28;20036;-77
2021/12/20 07:08:02;;;;;;;15.38;4.13;;;;;;;;;;5075331;28;20025;-79
2021/12/20 07:10:28;;;;;;;14.68;3.80;;;;;;;;;;5072075;28;20104;-77
2021/12/20 07:12:55;;;;;;;18.45;4.38;;;;;;;;;;5074514;28;20047;-76
2021/12/20 07:15:22;;;;;;;14.68;4.65;;;;;;;;;;5068298;28;20028;-77
2021/12/20 07:17:48;;;;;;;23.27;4.13;;;;;;;;;;5064726;28;20480;-77
2021/12/20 07:20:14;;;;;;;23.08;3.97;;;;;;;;;;5056740;28;20025;-77
2021/12/20 07:22:40;;;;;;;19.92;5.07;;;;;;;;;;5055806;28;20431;-75
2021/12/20 07:25:06;;;;;;;23.38;6.20;;;;;;;;;;5055122;28;20037;-79
2021/12/20 07:27:32;;;;;;;21.75;5.40;;;;;;;;;;5055102;28;20390;-76
2021/12/20 07:29:59;;;;;;;24.70;5.57;;;;;;;;;;5060790;28;20025;-78
2021/12/20 07:32:25;;;;;;;22.00;5.60;;;;;;;;;;5062607;28;20024;-78
2021/12/20 07:34:51;;;;;;;20.17;5.63;;;;;;;;;;5066498;28;20025;-77
2021/12/20 07:37:17;;;;;;;21.05;6.47;;;;;;;;;;5068541;28;20028;-78
2021/12/20 07:39:43;;;;;;;23.95;7.40;;;;;;;;;;5063078;28;20029;-79
2021/12/20 07:42:09;;;;;;;26.48;6.30;;;;;;;;;;5056008;28;20029;-79
2021/12/20 07:44:35;;;;;;;26.27;7.35;;;;;;;;;;5057739;28;20013;-79
2021/12/20 07:47:02;;;;;;;23.02;5.75;;;;;;;;;;5056148;28;20033;-79
2021/12/20 07:49:28;;;;;;;30.92;6.25;;;;;;;;;;5069455;28;20050;-77
2021/12/20 07:51:54;;;;;;;20.75;6.43;;;;;;;;;;5065610;28;20025;-78
2021/12/20 07:54:21;;;;;;;26.50;7.15;;;;;;;;;;5066614;28;20032;-78
2021/12/20 07:56:47;;;;;;;18.83;5.70;;;;;;;;;;5067314;28;20048;-78
2021/12/20 07:59:13;;;;;;;20.35;6.07;;;;;;;;;;5063569;28;20024;-81
2021/12/20 08:01:39;;;;;;;23.88;5.35;;;;;;;;;;5068415;28;20051;-78
2021/12/20 08:04:07;;;;;;;28.50;9.52;;;;;;;;;;5076313;28;20029;-79
2021/12/20 08:06:33;;;;;;;22.90;7.53;;;;;;;;;;5075056;28;20040;-78
2021/12/20 08:08:59;;;;;;;28.83;7.22;;;;;;;;;;5075200;28;20052;-78
2021/12/20 08:11:25;;;;;;;23.67;4.82;;;;;;;;;;5072973;28;20033;-79
2021/12/20 08:13:51;;;;;;;22.17;4.95;;;;;;;;;;5075283;28;20025;-78
2021/12/20 08:16:19;;;;;;;19.75;4.57;;;;;;;;;;5075822;28;20036;-78
2021/12/20 08:18:46;;;;;;;24.80;6.20;;;;;;;;;;5069294;28;20466;-79
2021/12/20 08:21:14;;;;;;;25.92;5.72;;;;;;;;;;5061582;28;20025;-81
2021/12/20 08:23:40;;;;;;;17.77;5.63;;;;;;;;;;5061558;28;20025;-80
2021/12/20 08:26:06;;;;;;;20.90;5.93;;;;;;;;;;5059607;28;20478;-81
2021/12/20 08:28:34;;;;;;;22.38;5.95;;;;;;;;;;5062280;28;20044;-79
2021/12/20 08:31:00;;;;;;;35.13;8.85;;;;;;;;;;5077383;28;20058;-79
2021/12/20 08:33:26;;;;;;;23.98;8.50;;;;;;;;;;5075865;28;20372;-80
2021/12/20 08:35:53;;;;;;;20.95;6.65;;;;;;;;;;5064761;28;20031;-80
2021/12/20 08:38:19;;;;;;;19.63;5.75;;;;;;;;;;5070192;28;20013;-79
2021/12/20 08:40:46;;;;;;;24.42;5.70;;;;;;;;;;5073040;28;20479;-81
2021/12/20 08:43:12;;;;;;;25.17;5.40;;;;;;;;;;5061663;28;20028;-81
2021/12/20 08:45:38;;;;;;;17.35;4.78;;;;;;;;;;5061720;28;20532;-80
2021/12/20 08:48:04;;;;;;;24.17;6.10;;;;;;;;;;5064163;28;20378;-79
2021/12/20 08:50:31;;;;;;;22.23;5.30;;;;;;;;;;5061682;28;20033;-80
2021/12/20 08:52:56;;;;;;;21.60;5.25;;;;;;;;;;5061631;28;20104;-81
2021/12/20 08:55:23;;;;;;;21.90;5.65;;;;;;;;;;5061467;28;20044;-80
2021/12/20 08:57:49;;;;;;;30.40;7.70;;;;;;;;;;5062676;28;20025;-81
2021/12/20 09:00:20;;;;;;;29.17;7.47;;;;;;;;;;5061318;28;20033;-81
2021/12/20 09:02:46;;;;;;;22.98;7.15;;;;;;;;;;5060483;28;20021;-81
2021/12/20 09:05:20;;;;;;;27.73;7.55;;;;;;;;;;5064495;28;20025;-79
2021/12/20 09:07:47;;;;;;;23.70;5.95;;;;;;;;;;5065281;28;20025;-78
2021/12/20 09:10:13;;;;;;;27.45;6.30;;;;;;;;;;5060100;28;20082;-82
2021/12/20 09:12:40;;;;;;;19.48;7.75;;;;;;;;;;5060660;28;20069;-80
2021/12/20 09:15:06;;;;;;;16.90;5.93;;;;;;;;;;5060996;28;20044;-82
2021/12/20 09:17:32;;;;;;;17.83;5.85;;;;;;;;;;5060961;28;20486;-79
2021/12/20 09:19:58;;;;;;;20.08;5.60;;;;;;;;;;5061392;28;20025;-81
2021/12/20 09:22:29;;;;;;;20.48;5.85;;;;;;;;;;5063477;28;20028;-80
2021/12/20 09:24:56;;;;;;;21.95;5.75;;;;;;;;;;5066792;28;20503;-80
2021/12/20 09:27:22;;;;;;;14.93;4.45;;;;;;;;;;5059816;28;20032;-81
2021/12/20 09:29:48;;;;;;;18.50;5.30;;;;;;;;;;5061975;28;20084;-81
2021/12/20 09:32:14;;;;;;;23.85;6.18;;;;;;;;;;5060299;28;20066;-80
2021/12/20 09:34:40;;;;;;;13.40;4.40;;;;;;;;;;5060048;28;20554;-82
2021/12/20 09:37:08;;;;;;;24.27;4.93;;;;;;;;;;5062345;28;20021;-81
2021/12/20 09:39:37;;;;;;;18.00;4.90;;;;;;;;;;5063363;28;20016;-81
2021/12/20 09:42:04;;;;;;;14.35;4.30;;;;;;;;;;5063528;28;20497;-81
2021/12/20 09:44:31;;;;;;;19.80;5.25;;;;;;;;;;5063171;28;20554;-79
2021/12/20 09:46:57;;;;;;;18.00;5.30;;;;;;;;;;5063282;28;20081;-80
2021/12/20 09:49:23;;;;;;;19.10;4.05;;;;;;;;;;5064312;28;20513;-82
2021/12/20 09:51:50;;;;;;;14.25;3.85;;;;;;;;;;5062506;28;20474;-79
2021/12/20 09:54:16;;;;;;;19.50;4.45;;;;;;;;;;5062447;28;20021;-80
2021/12/20 09:56:43;;;;;;;17.58;4.43;;;;;;;;;;5064781;28;20052;-82
2021/12/20 09:59:12;;;;;;;14.45;4.13;;;;;;;;;;5063959;28;20021;-81
2021/12/20 10:01:38;;;;;;;17.63;5.68;;;;;;;;;;5065526;28;20084;-79
2021/12/20 10:04:04;;;;;;;16.42;5.22;;;;;;;;;;5066099;28;20367;-82
2021/12/20 10:06:31;;;;;;;19.90;4.78;;;;;;;;;;5075379;28;20039;-76
2021/12/20 10:09:04;;;;;;;23.98;4.70;;;;;;;;;;5077500;28;20108;-79
2021/12/20 10:11:31;;;;;;;18.50;4.95;;;;;;;;;;5077132;28;20029;-79
2021/12/20 10:14:03;;;;;;;20.77;4.50;;;;;;;;;;5074353;28;20021;-79
2021/12/20 10:16:29;;;;;;;16.27;4.28;;;;;;;;;;5060964;28;20337;-79
2021/12/20 10:18:55;;;;;;;15.45;3.83;;;;;;;;;;5058798;28;20029;-80
2021/12/20 10:21:33;;;;;;;21.10;4.50;;;;;;;;;;5062000;28;20033;-83
2021/12/20 10:23:59;;;;;;;14.95;4.47;;;;;;;;;;5066905;28;20497;-78
2021/12/20 10:26:25;;;;;;;19.75;4.10;;;;;;;;;;5070716;28;20099;-78
2021/12/20 10:28:52;;;;;;;17.60;4.28;;;;;;;;;;5072564;28;20025;-78
2021/12/20 10:31:22;;;;;;;15.80;3.97;;;;;;;;;;5068254;28;20032;-80
2021/12/20 10:33:53;;;;;;;18.33;4.25;;;;;;;;;;5061182;28;20025;-79
2021/12/20 10:36:19;;;;;;;18.42;4.70;;;;;;;;;;5060286;28;20052;-81
2021/12/20 10:38:47;;;;;;;11.68;3.90;;;;;;;;;;5061701;28;20096;-78
2021/12/20 10:41:24;;;;;;;13.95;3.83;;;;;;;;;;5058564;28;20107;-79
2021/12/20 10:43:54;;;;;;;17.38;4.40;;;;;;;;;;5058045;28;20032;-79
2021/12/20 10:46:22;;;;;;;15.35;4.40;;;;;;;;;;5060147;28;20032;-78
2021/12/20 10:48:49;;;;;;;21.50;4.50;;;;;;;;;;5062871;28;20039;-78
2021/12/20 10:51:17;;;;;;;16.08;4.50;;;;;;;;;;5062683;28;20025;-80
2021/12/20 10:53:47;;;;;;;18.00;4.50;;;;;;;;;;5060970;28;20072;-80
2021/12/20 10:56:13;;;;;;;23.55;4.18;;;;;;;;;;5062948;28;20029;-79
2021/12/20 10:58:40;;;;;;;19.00;5.50;;;;;;;;;;5064856;28;20029;-77
2021/12/20 11:01:06;;;;;;;16.77;4.60;;;;;;;;;;5059449;28;20044;-78
2021/12/20 11:03:36;;;;;;;24.42;9.95;;;;;;;;;;5059827;28;20037;-80
2021/12/20 11:06:25;;;;;;;18.33;5.32;;;;;;;;;;5071772;28;20025;-82
2021/12/20 11:09:08;;;;;;;13.18;3.83;;;;;;;;;;5072109;28;20025;-81
2021/12/20 11:11:35;;;;;;;18.05;4.90;;;;;;;;;;5069634;28;20147;-81
2021/12/20 11:14:02;;;;;;;17.92;4.22;;;;;;;;;;5067614;28;20074;-82
2021/12/20 11:16:39;;;;;;;17.27;4.15;;;;;;;;;;5068402;28;20033;-81
2021/12/20 11:19:09;;;;;;;16.42;4.38;;;;;;;;;;5069591;28;20104;-80
2021/12/20 11:21:36;;;;;;;16.05;4.25;;;;;;;;;;5073564;28;20040;-81
2021/12/20 11:24:02;;;;;;;128.55;54.13;;;;;;;;;;5070419;28;20021;-82
2021/12/20 11:26:28;;;;;;;22.27;9.85;;;;;;;;;;5066325;28;20029;-82
2021/12/20 11:28:55;;;;;;;22.85;5.85;;;;;;;;;;5064961;28;20020;-82
2021/12/20 11:31:21;;;;;;;28.10;8.60;;;;;;;;;;5067430;28;20040;-83
2021/12/20 11:33:47;;;;;;;151.30;60.50;;;;;;;;;;5075157;28;20005;-83
2021/12/20 11:36:13;;;;;;;33.58;13.30;;;;;;;;;;5078022;28;20025;-79
2021/12/20 11:38:40;;;;;;;14.50;5.15;;;;;;;;;;5077696;28;20068;-80
2021/12/20 11:41:06;;;;;;;15.45;3.83;;;;;;;;;;5068863;28;20446;-80
2021/12/20 11:43:32;;;;;;;13.85;4.18;;;;;;;;;;5066473;28;20033;-79
2021/12/20 11:45:59;;;;;;;17.80;5.53;;;;;;;;;;5068371;28;20040;-80
2021/12/20 11:48:26;;;;;;;32.80;12.35;;;;;;;;;;5072947;28;20103;-80
2021/12/20 11:50:56;;;;;;;16.60;4.80;;;;;;;;;;5073787;28;20025;-79
2021/12/20 11:53:22;;;;;;;16.10;3.63;;;;;;;;;;5078320;28;20023;-77
2021/12/20 11:55:50;;;;;;;13.00;3.63;;;;;;;;;;5078159;28;20025;-78
2021/12/20 11:58:27;;;;;;;12.88;3.30;;;;;;;;;;5067917;28;20025;-79
2021/12/20 12:01:02;;;;;;;11.68;3.90;;;;;;;;;;5066163;28;20025;-80
2021/12/20 12:03:29;;;;;;;15.20;4.10;;;;;;;;;;5064238;28;20057;-80
2021/12/20 12:05:56;;;;;;;12.13;3.95;;;;;;;;;;5064760;28;20017;-78
2021/12/20 12:08:22;;;;;;;16.40;4.47;;;;;;;;;;5068788;28;20055;-77
2021/12/20 12:10:48;;;;;;;14.95;4.03;;;;;;;;;;5072598;28;20025;-78
2021/12/20 12:13:16;;;;;;;14.77;4.25;;;;;;;;;;5075395;28;20052;-79
2021/12/20 12:16:05;;;;;;;11.52;4.30;;;;;;;;;;5076077;28;20043;-78
2021/12/20 12:18:51;;;;;;;15.88;4.40;;;;;;;;;;5065286;28;20020;-79
2021/12/20 12:21:33;;;;;;;13.68;4.07;;;;;;;;;;5067348;28;20540;-79
2021/12/20 12:23:59;;;;;;;7.80;3.15;;;;;;;;;;5068252;28;20108;-78
2021/12/20 12:26:33;;;;;;;12.07;2.92;;;;;;;;;;5073277;28;20036;-78
2021/12/20 12:29:00;;;;;;;13.90;4.05;;;;;;;;;;5074915;28;20025;-76
2021/12/20 12:31:26;;;;;;;16.77;5.00;;;;;;;;;;5074140;28;20017;-78
2021/12/20 12:34:10;;;;;;;31.63;16.10;;;;;;;;;;5076348;28;20029;-77
2021/12/20 12:36:40;;;;;;;17.27;7.93;;;;;;;;;;5074628;28;20006;-79
2021/12/20 12:39:09;;;;;;;57.30;27.75;;;;;;;;;;5065693;28;20037;-79
2021/12/20 12:41:56;;;;;;;20.30;6.40;;;;;;;;;;5067367;28;20029;-79
2021/12/20 12:44:38;;;;;;;7.22;3.25;;;;;;;;;;5065427;28;20039;-78
2021/12/20 12:47:12;;;;;;;16.08;4.47;;;;;;;;;;5076272;28;20066;-78
2021/12/20 12:49:39;;;;;;;16.25;3.47;;;;;;;;;;5076134;28;20088;-78
2021/12/20 12:52:08;;;;;;;16.48;4.22;;;;;;;;;;5067595;28;20064;-79
2021/12/20 12:54:53;;;;;;;16.77;3.55;;;;;;;;;;5070734;28;20025;-77
2021/12/20 12:57:19;;;;;;;11.93;4.72;;;;;;;;;;5072033;28;20024;-78
2021/12/20 12:59:49;;;;;;;9.60;3.00;;;;;;;;;;5070635;28;20025;-78
2021/12/20 13:02:20;;;;;;;12.38;3.22;;;;;;;;;;5079900;22;20114;-80
2021/12/20 13:04:46;;;;;;;12.00;3.20;;;;;;;;;;5066518;28;20021;-80
2021/12/20 13:07:12;;;;;;;17.35;7.22;;;;;;;;;;5076115;28;20047;-83
2021/12/20 13:09:44;;;;;;;11.55;3.13;;;;;;;;;;5078814;28;20017;-79
2021/12/20 13:12:14;;;;;;;8.68;3.10;;;;;;;;;;5075469;28;20092;-80
2021/12/20 13:15:05;;;;;;;9.23;2.88;;;;;;;;;;5074357;28;20063;-81
2021/12/20 13:17:34;;;;;;;14.07;3.55;;;;;;;;;;5065299;28;20486;-79
2021/12/20 13:20:28;;;;;;;14.45;3.42;;;;;;;;;;5062828;28;20047;-80
2021/12/20 13:23:05;;;;;;;11.85;3.38;;;;;;;;;;5063926;28;20017;-80
2021/12/20 13:25:43;;;;;;;14.82;4.95;;;;;;;;;;5073448;28;20024;-81
2021/12/20 13:28:11;;;;;;;13.80;4.68;;;;;;;;;;5076643;28;20029;-79
2021/12/20 13:30:39;;;;;;;17.60;6.78;;;;;;;;;;5068374;28;20028;-79
2021/12/20 13:33:05;;;;;;;20.35;5.05;;;;;;;;;;5063789;28;20029;-80
2021/12/20 13:35:31;;;;;;;14.48;4.57;;;;;;;;;;5063921;28;20150;-79
2021/12/20 13:38:13;;;;;;;15.82;4.78;;;;;;;;;;5062787;28;20087;-79
2021/12/20 13:40:43;;;;;;;11.20;4.35;;;;;;;;;;5060486;28;20021;-81
2021/12/20 13:43:12;;;;;;;15.38;5.22;;;;;;;;;;5066003;28;20025;-78
2021/12/20 13:45:39;;;;;;;18.42;7.03;;;;;;;;;;5063171;28;20021;-80
2021/12/20 13:48:08;;;;;;;16.27;7.15;;;;;;;;;;5064823;28;20417;-81
2021/12/20 13:50:34;;;;;;;15.43;5.72;;;;;;;;;;5061694;28;20267;-80
2021/12/20 13:53:00;;;;;;;12.98;4.45;;;;;;;;;;5064191;28;20025;-81
2021/12/20 13:55:26;;;;;;;11.68;3.88;;;;;;;;;;5063226;28;20036;-81
2021/12/20 13:57:53;;;;;;;14.73;4.30;;;;;;;;;;5062611;28;20059;-81
2021/12/20 14:00:19;;;;;;;12.20;4.07;;;;;;;;;;5063651;28;20032;-82
2021/12/20 14:02:45;;;;;;;18.70;3.38;;;;;;;;;;5063985;28;20048;-81
2021/12/20 14:05:19;;;;;;;14.65;4.00;;;;;;;;;;5068264;28;20048;-81
2021/12/20 14:07:51;;;;;;;15.53;5.20;;;;;;;;;;5065618;28;20028;-81
2021/12/20 14:10:18;;;;;;;13.93;4.18;;;;;;;;;;5063376;28;20029;-81
2021/12/20 14:12:47;;;;;;;10.23;3.20;;;;;;;;;;5067967;28;20084;-79
2021/12/20 14:15:18;;;;;;;15.82;4.22;;;;;;;;;;5067478;28;20025;-79
2021/12/20 14:17:57;;;;;;;18.67;5.35;;;;;;;;;;5070333;28;20020;-80
2021/12/20 14:20:24;;;;;;;15.75;6.25;;;;;;;;;;5070573;28;20048;-81
2021/12/20 14:23:00;;;;;;;15.35;5.03;;;;;;;;;;5072510;28;20081;-80
2021/12/20 14:25:48;;;;;;;18.25;4.65;;;;;;;;;;5065574;28;20018;-80
2021/12/20 14:28:16;;;;;;;15.77;4.65;;;;;;;;;;5061607;28;20025;-79
2021/12/20 14:30:46;;;;;;;12.55;4.15;;;;;;;;;;5062831;28;20029;-77
2021/12/20 14:33:18;;;;;;;20.20;5.15;;;;;;;;;;5060953;28;20033;-82
2021/12/20 14:35:50;;;;;;;13.77;4.72;;;;;;;;;;5069030;28;20029;-76
2021/12/20 14:38:30;;;;;;;20.50;4.63;;;;;;;;;;5057957;28;20028;-79
2021/12/20 14:40:56;;;;;;;15.10;6.40;;;;;;;;;;5060595;28;20022;-78
2021/12/20 14:43:28;;;;;;;13.57;5.25;;;;;;;;;;5059978;28;20029;-79
2021/12/20 14:46:15;;;;;;;12.63;4.60;;;;;;;;;;5059508;28;20100;-79